sensor_id;sensor_type;location;lat;lon;timestamp;temperature;humidity
2653;DHT22;1336;48.692;9.144;2023-04-24T05:00:06;11.40;97.20
2653;DHT22;1336;48.692;9.144;2023-04-24T05:01:00;11.40;97.20
2653;DHT22;1336;48.692;9.144;2023-04-24T05:01:51;11.50;97.20
2653;DHT22;1336;48.692;9.144;2023-04-24T05:02:43;11.50;97.20
2653;DHT22;1336;48.692;9.144;2023-04-24T05:03:34;11.50;97.20
2653;DHT22;1336;48.692;9.144;2023-04-24T05:04:26;11.50;97.20
2653;DHT22;1336;48.692;9.144;2023-04-24T05:05:17;11.50;97.20
2653;DHT22;1336;48.692;9.144;2023-04-24T05:06:09;11.50;97.20
2653;DHT22;1336;48.692;9.144;2023-04-24T05:06:59;11.50;97.20
2653;DHT22;1336;48.692;9.144;2023-04-24T05:07:51;11.50;97.20
2653;DHT22;1336;48.692;9.144;2023-04-24T05:08:42;11.50;97.20
2653;DHT22;1336;48.692;9.144;2023-04-24T05:09:34;11.60;97.20
2653;DHT22;1336;48.692;9.144;2023-04-24T05:10:24;11.50;97.20
2653;DHT22;1336;48.692;9.144;2023-04-24T05:11:16;11.50;97.20
2653;DHT22;1336;48.692;9.144;2023-04-24T05:12:07;11.50;97.20
2653;DHT22;1336;48.692;9.144;2023-04-24T05:12:58;11.50;97.20
2653;DHT22;1336;48.692;9.144;2023-04-24T05:13:49;11.60;97.20
2653;DHT22;1336;48.692;9.144;2023-04-24T05:14:41;11.60;97.20
2653;DHT22;1336;48.692;9.144;2023-04-24T05:15:33;11.60;97.20
2653;DHT22;1336;48.692;9.144;2023-04-24T05:16:25;11.60;97.20
2653;DHT22;1336;48.692;9.144;2023-04-24T05:17:15;11.60;97.20
2653;DHT22;1336;48.692;9.144;2023-04-24T05:18:07;11.60;97.20
2653;DHT22;1336;48.692;9.144;2023-04-24T05:18:58;11.60;97.20
2653;DHT22;1336;48.692;9.144;2023-04-24T05:19:49;11.60;97.20
2653;DHT22;1336;48.692;9.144;2023-04-24T05:20:41;11.60;97.20
2653;DHT22;1336;48.692;9.144;2023-04-24T05:21:34;11.60;97.20
2653;DHT22;1336;48.692;9.144;2023-04-24T05:22:25;11.60;97.20
2653;DHT22;1336;48.692;9.144;2023-04-24T05:23:16;11.60;97.20
2653;DHT22;1336;48.692;9.144;2023-04-24T05:24:07;11.60;97.20
2653;DHT22;1336;48.692;9.144;2023-04-24T05:24:59;11.60;97.20
2653;DHT22;1336;48.692;9.144;2023-04-24T05:25:50;11.60;97.20
2653;DHT22;1336;48.692;9.144;2023-04-24T05:26:41;11.60;97.20
2653;DHT22;1336;48.692;9.144;2023-04-24T05:27:32;11.70;97.20
2653;DHT22;1336;48.692;9.144;2023-04-24T05:28:24;11.70;97.20
2653;DHT22;1336;48.692;9.144;2023-04-24T05:29:18;11.70;97.20
2653;DHT22;1336;48.692;9.144;2023-04-24T05:30:11;11.70;97.20
2653;DHT22;1336;48.692;9.144;2023-04-24T05:31:04;11.70;97.20
2653;DHT22;1336;48.692;9.144;2023-04-24T05:31:55;11.80;97.20
2653;DHT22;1336;48.692;9.144;2023-04-24T05:32:46;11.80;97.20
2653;DHT22;1336;48.692;9.144;2023-04-24T05:33:38;11.80;97.20
2653;DHT22;1336;48.692;9.144;2023-04-24T05:34:28;11.80;97.20
2653;DHT22;1336;48.692;9.144;2023-04-24T05:35:20;11.80;97.20
2653;DHT22;1336;48.692;9.144;2023-04-24T05:36:11;11.90;97.20
2653;DHT22;1336;48.692;9.144;2023-04-24T05:37:03;11.90;97.20
2653;DHT22;1336;48.692;9.144;2023-04-24T05:37:58;11.90;97.20
2653;DHT22;1336;48.692;9.144;2023-04-24T05:38:50;11.90;97.20
2653;DHT22;1336;48.692;9.144;2023-04-24T05:39:40;11.90;97.20
2653;DHT22;1336;48.692;9.144;2023-04-24T05:40:32;11.90;97.20
2653;DHT22;1336;48.692;9.144;2023-04-24T05:41:23;11.90;97.20
2653;DHT22;1336;48.692;9.144;2023-04-24T05:42:14;11.90;97.20
2653;DHT22;1336;48.692;9.144;2023-04-24T05:43:06;12.00;97.20
2653;DHT22;1336;48.692;9.144;2023-04-24T05:43:56;12.00;97.20
2653;DHT22;1336;48.692;9.144;2023-04-24T05:44:48;12.00;97.20
2653;DHT22;1336;48.692;9.144;2023-04-24T05:45:39;12.00;97.20
2653;DHT22;1336;48.692;9.144;2023-04-24T05:46:32;12.00;97.20
2653;DHT22;1336;48.692;9.144;2023-04-24T05:47:23;12.00;97.20
2653;DHT22;1336;48.692;9.144;2023-04-24T05:48:14;12.10;97.20
2653;DHT22;1336;48.692;9.144;2023-04-24T05:49:06;12.00;97.20
2653;DHT22;1336;48.692;9.144;2023-04-24T05:49:57;12.00;97.20
2653;DHT22;1336;48.692;9.144;2023-04-24T05:50:48;12.00;97.20
2653;DHT22;1336;48.692;9.144;2023-04-24T05:51:40;12.00;97.20
2653;DHT22;1336;48.692;9.144;2023-04-24T05:52:31;12.00;97.20
2653;DHT22;1336;48.692;9.144;2023-04-24T05:53:23;12.00;97.20
2653;DHT22;1336;48.692;9.144;2023-04-24T05:54:14;12.00;97.20
2653;DHT22;1336;48.692;9.144;2023-04-24T05:55:06;12.00;97.20
2653;DHT22;1336;48.692;9.144;2023-04-24T05:55:56;12.00;97.20
2653;DHT22;1336;48.692;9.144;2023-04-24T05:56:49;12.00;97.20
2653;DHT22;1336;48.692;9.144;2023-04-24T05:57:40;12.00;97.20
2653;DHT22;1336;48.692;9.144;2023-04-24T05:58:31;12.00;97.20
2653;DHT22;1336;48.692;9.144;2023-04-24T05:59:22;12.00;97.20
2653;DHT22;1336;48.692;9.144;2023-04-24T06:00:15;12.00;97.20
2653;DHT22;1336;48.692;9.144;2023-04-24T06:01:06;12.10;97.20
2653;DHT22;1336;48.692;9.144;2023-04-24T06:01:59;12.10;97.20
2653;DHT22;1336;48.692;9.144;2023-04-24T06:02:50;12.10;97.20
2653;DHT22;1336;48.692;9.144;2023-04-24T06:03:41;12.10;97.20
2653;DHT22;1336;48.692;9.144;2023-04-24T06:04:32;12.10;97.20
2653;DHT22;1336;48.692;9.144;2023-04-24T06:05:24;12.10;97.20
2653;DHT22;1336;48.692;9.144;2023-04-24T06:06:15;12.10;97.20
2653;DHT22;1336;48.692;9.144;2023-04-24T06:07:07;12.10;97.20
2653;DHT22;1336;48.692;9.144;2023-04-24T06:07:58;12.00;97.20
2653;DHT22;1336;48.692;9.144;2023-04-24T06:08:49;12.00;97.20
2653;DHT22;1336;48.692;9.144;2023-04-24T06:09:40;12.00;97.20
2653;DHT22;1336;48.692;9.144;2023-04-24T06:10:32;12.00;97.20
2653;DHT22;1336;48.692;9.144;2023-04-24T06:11:23;12.00;97.20
2653;DHT22;1336;48.692;9.144;2023-04-24T06:12:15;11.90;97.20
2653;DHT22;1336;48.692;9.144;2023-04-24T06:13:06;11.90;97.20
2653;DHT22;1336;48.692;9.144;2023-04-24T06:13:57;11.90;97.20
2653;DHT22;1336;48.692;9.144;2023-04-24T06:14:48;11.90;97.20
2653;DHT22;1336;48.692;9.144;2023-04-24T06:15:40;11.90;97.20
2653;DHT22;1336;48.692;9.144;2023-04-24T06:16:31;11.90;97.20
2653;DHT22;1336;48.692;9.144;2023-04-24T06:17:24;11.90;97.20
2653;DHT22;1336;48.692;9.144;2023-04-24T06:18:15;11.90;97.20
2653;DHT22;1336;48.692;9.144;2023-04-24T06:19:06;11.80;97.20
2653;DHT22;1336;48.692;9.144;2023-04-24T06:19:57;11.80;97.20
2653;DHT22;1336;48.692;9.144;2023-04-24T06:20:49;11.80;97.20
2653;DHT22;1336;48.692;9.144;2023-04-24T06:21:46;11.80;97.20
2653;DHT22;1336;48.692;9.144;2023-04-24T06:22:36;11.80;97.20
2653;DHT22;1336;48.692;9.144;2023-04-24T06:23:30;11.80;97.20
2653;DHT22;1336;48.692;9.144;2023-04-24T06:24:27;11.90;97.20
2653;DHT22;1336;48.692;9.144;2023-04-24T06:25:21;11.90;97.20
2653;DHT22;1336;48.692;9.144;2023-04-24T06:26:12;11.90;97.20
2653;DHT22;1336;48.692;9.144;2023-04-24T06:27:04;12.00;97.20
2653;DHT22;1336;48.692;9.144;2023-04-24T06:27:54;12.00;97.20
2653;DHT22;1336;48.692;9.144;2023-04-24T06:28:46;12.10;97.20
2653;DHT22;1336;48.692;9.144;2023-04-24T06:29:37;12.10;97.20
2653;DHT22;1336;48.692;9.144;2023-04-24T06:30:29;12.20;97.20
2653;DHT22;1336;48.692;9.144;2023-04-24T06:31:20;12.20;97.20
2653;DHT22;1336;48.692;9.144;2023-04-24T06:32:12;12.30;97.20
2653;DHT22;1336;48.692;9.144;2023-04-24T06:33:04;12.30;97.20
2653;DHT22;1336;48.692;9.144;2023-04-24T06:33:55;12.40;97.20
2653;DHT22;1336;48.692;9.144;2023-04-24T06:34:46;12.50;97.20
2653;DHT22;1336;48.692;9.144;2023-04-24T06:35:38;12.60;97.20
2653;DHT22;1336;48.692;9.144;2023-04-24T06:36:29;12.80;97.20
2653;DHT22;1336;48.692;9.144;2023-04-24T06:37:21;12.90;97.20
2653;DHT22;1336;48.692;9.144;2023-04-24T06:38:12;13.10;97.20
2653;DHT22;1336;48.692;9.144;2023-04-24T06:39:03;13.20;97.20
2653;DHT22;1336;48.692;9.144;2023-04-24T06:39:54;13.30;97.20
2653;DHT22;1336;48.692;9.144;2023-04-24T06:40:46;13.40;97.20
2653;DHT22;1336;48.692;9.144;2023-04-24T06:41:37;13.50;97.20
2653;DHT22;1336;48.692;9.144;2023-04-24T06:42:30;13.60;97.20
2653;DHT22;1336;48.692;9.144;2023-04-24T06:43:21;13.70;97.20
2653;DHT22;1336;48.692;9.144;2023-04-24T06:44:12;13.70;97.20
2653;DHT22;1336;48.692;9.144;2023-04-24T06:45:05;13.80;97.20
2653;DHT22;1336;48.692;9.144;2023-04-24T06:45:57;13.80;97.20
2653;DHT22;1336;48.692;9.144;2023-04-24T06:46:48;13.80;97.20
2653;DHT22;1336;48.692;9.144;2023-04-24T06:47:40;13.80;97.20
2653;DHT22;1336;48.692;9.144;2023-04-24T06:48:32;13.80;97.20
2653;DHT22;1336;48.692;9.144;2023-04-24T06:49:23;13.90;97.20
2653;DHT22;1336;48.692;9.144;2023-04-24T06:50:14;13.90;97.20
2653;DHT22;1336;48.692;9.144;2023-04-24T06:51:06;14.00;97.20
2653;DHT22;1336;48.692;9.144;2023-04-24T06:51:56;14.10;97.20
2653;DHT22;1336;48.692;9.144;2023-04-24T06:52:48;14.10;97.20
2653;DHT22;1336;48.692;9.144;2023-04-24T06:53:39;14.20;97.20
2653;DHT22;1336;48.692;9.144;2023-04-24T06:54:31;14.40;97.20
2653;DHT22;1336;48.692;9.144;2023-04-24T06:55:22;14.50;97.20
2653;DHT22;1336;48.692;9.144;2023-04-24T06:56:13;14.60;97.20
2653;DHT22;1336;48.692;9.144;2023-04-24T06:57:04;14.60;97.20
2653;DHT22;1336;48.692;9.144;2023-04-24T06:57:56;14.60;97.20
2653;DHT22;1336;48.692;9.144;2023-04-24T06:58:47;14.60;97.20
2653;DHT22;1336;48.692;9.144;2023-04-24T06:59:38;14.60;97.20
2653;DHT22;1336;48.692;9.144;2023-04-24T07:00:29;14.60;97.20
2653;DHT22;1336;48.692;9.144;2023-04-24T07:01:21;14.50;97.20
2653;DHT22;1336;48.692;9.144;2023-04-24T07:02:12;14.50;97.20
2653;DHT22;1336;48.692;9.144;2023-04-24T07:03:04;14.40;97.20
2653;DHT22;1336;48.692;9.144;2023-04-24T07:03:57;14.40;97.20
2653;DHT22;1336;48.692;9.144;2023-04-24T07:04:48;14.30;97.20
2653;DHT22;1336;48.692;9.144;2023-04-24T07:05:39;14.30;97.20
2653;DHT22;1336;48.692;9.144;2023-04-24T07:06:32;14.20;97.20
2653;DHT22;1336;48.692;9.144;2023-04-24T07:07:23;14.20;97.20
2653;DHT22;1336;48.692;9.144;2023-04-24T07:08:15;14.20;97.20
2653;DHT22;1336;48.692;9.144;2023-04-24T07:09:07;14.20;97.20
2653;DHT22;1336;48.692;9.144;2023-04-24T07:10:00;14.20;97.20
2653;DHT22;1336;48.692;9.144;2023-04-24T07:10:51;14.20;97.20
2653;DHT22;1336;48.692;9.144;2023-04-24T07:11:42;14.10;97.20
2653;DHT22;1336;48.692;9.144;2023-04-24T07:12:33;14.10;97.20
2653;DHT22;1336;48.692;9.144;2023-04-24T07:13:26;14.00;97.20
2653;DHT22;1336;48.692;9.144;2023-04-24T07:14:17;13.90;97.20
2653;DHT22;1336;48.692;9.144;2023-04-24T07:15:09;13.90;97.20
2653;DHT22;1336;48.692;9.144;2023-04-24T07:16:01;13.80;97.20
2653;DHT22;1336;48.692;9.144;2023-04-24T07:16:52;13.70;97.20
2653;DHT22;1336;48.692;9.144;2023-04-24T07:17:43;13.60;97.20
2653;DHT22;1336;48.692;9.144;2023-04-24T07:18:35;13.50;97.20
2653;DHT22;1336;48.692;9.144;2023-04-24T07:19:28;13.40;97.20
2653;DHT22;1336;48.692;9.144;2023-04-24T07:20:20;13.30;97.20
2653;DHT22;1336;48.692;9.144;2023-04-24T07:21:11;13.20;97.20
2653;DHT22;1336;48.692;9.144;2023-04-24T07:22:03;13.10;97.20
2653;DHT22;1336;48.692;9.144;2023-04-24T07:22:54;13.00;97.20
2653;DHT22;1336;48.692;9.144;2023-04-24T07:23:45;13.00;97.20
2653;DHT22;1336;48.692;9.144;2023-04-24T07:24:36;12.90;97.20
2653;DHT22;1336;48.692;9.144;2023-04-24T07:25:28;12.80;97.20
2653;DHT22;1336;48.692;9.144;2023-04-24T07:26:20;12.70;97.20
2653;DHT22;1336;48.692;9.144;2023-04-24T07:27:12;12.70;97.20
2653;DHT22;1336;48.692;9.144;2023-04-24T07:28:05;12.60;97.20
2653;DHT22;1336;48.692;9.144;2023-04-24T07:28:57;12.60;97.20
2653;DHT22;1336;48.692;9.144;2023-04-24T07:29:49;12.60;97.20
2653;DHT22;1336;48.692;9.144;2023-04-24T07:30:39;12.60;97.20
2653;DHT22;1336;48.692;9.144;2023-04-24T07:31:31;12.60;97.20
2653;DHT22;1336;48.692;9.144;2023-04-24T07:32:22;12.60;97.20
2653;DHT22;1336;48.692;9.144;2023-04-24T07:33:13;12.70;97.20
2653;DHT22;1336;48.692;9.144;2023-04-24T07:34:04;12.70;97.20
2653;DHT22;1336;48.692;9.144;2023-04-24T07:34:57;12.90;97.20
2653;DHT22;1336;48.692;9.144;2023-04-24T07:35:48;13.00;97.20
2653;DHT22;1336;48.692;9.144;2023-04-24T07:36:41;13.10;97.20
2653;DHT22;1336;48.692;9.144;2023-04-24T07:37:32;13.30;97.20
2653;DHT22;1336;48.692;9.144;2023-04-24T07:38:23;13.40;97.20
2653;DHT22;1336;48.692;9.144;2023-04-24T07:39:16;13.50;97.20
2653;DHT22;1336;48.692;9.144;2023-04-24T07:40:08;13.70;97.20
2653;DHT22;1336;48.692;9.144;2023-04-24T07:40:59;13.80;97.20
2653;DHT22;1336;48.692;9.144;2023-04-24T07:41:51;13.90;97.20
2653;DHT22;1336;48.692;9.144;2023-04-24T07:42:41;14.00;97.20
2653;DHT22;1336;48.692;9.144;2023-04-24T07:43:34;14.20;97.20
2653;DHT22;1336;48.692;9.144;2023-04-24T07:44:25;14.30;97.20
2653;DHT22;1336;48.692;9.144;2023-04-24T07:45:17;14.50;97.20
2653;DHT22;1336;48.692;9.144;2023-04-24T07:46:08;14.60;97.20
2653;DHT22;1336;48.692;9.144;2023-04-24T07:47:00;14.70;97.20
2653;DHT22;1336;48.692;9.144;2023-04-24T07:47:51;14.80;97.20
2653;DHT22;1336;48.692;9.144;2023-04-24T07:48:42;14.90;97.20
2653;DHT22;1336;48.692;9.144;2023-04-24T07:49:33;15.00;97.20
2653;DHT22;1336;48.692;9.144;2023-04-24T07:50:26;15.10;97.20
2653;DHT22;1336;48.692;9.144;2023-04-24T07:51:17;15.20;97.20
2653;DHT22;1336;48.692;9.144;2023-04-24T07:52:09;15.30;97.20
2653;DHT22;1336;48.692;9.144;2023-04-24T07:53:00;15.30;97.20
2653;DHT22;1336;48.692;9.144;2023-04-24T07:53:51;15.40;97.20
2653;DHT22;1336;48.692;9.144;2023-04-24T07:54:42;15.50;97.20
2653;DHT22;1336;48.692;9.144;2023-04-24T07:55:34;15.60;97.20
2653;DHT22;1336;48.692;9.144;2023-04-24T07:56:25;15.70;97.20
2653;DHT22;1336;48.692;9.144;2023-04-24T07:57:16;15.70;97.20
2653;DHT22;1336;48.692;9.144;2023-04-24T07:58:07;15.70;97.20
2653;DHT22;1336;48.692;9.144;2023-04-24T07:58:59;15.60;97.20
2653;DHT22;1336;48.692;9.144;2023-04-24T07:59:50;15.50;97.20
2653;DHT22;1336;48.692;9.144;2023-04-24T08:00:42;15.40;97.20
2653;DHT22;1336;48.692;9.144;2023-04-24T08:01:32;15.40;97.20
2653;DHT22;1336;48.692;9.144;2023-04-24T08:02:24;15.30;97.20
2653;DHT22;1336;48.692;9.144;2023-04-24T08:03:16;15.20;97.20
2653;DHT22;1336;48.692;9.144;2023-04-24T08:04:10;15.20;97.20
2653;DHT22;1336;48.692;9.144;2023-04-24T08:05:00;15.20;97.20
2653;DHT22;1336;48.692;9.144;2023-04-24T08:05:55;15.10;97.20
2653;DHT22;1336;48.692;9.144;2023-04-24T08:06:47;15.10;97.20
2653;DHT22;1336;48.692;9.144;2023-04-24T08:07:39;15.10;97.20
2653;DHT22;1336;48.692;9.144;2023-04-24T08:08:29;15.10;97.20
2653;DHT22;1336;48.692;9.144;2023-04-24T08:09:21;15.10;97.20
2653;DHT22;1336;48.692;9.144;2023-04-24T08:10:12;15.10;97.20
2653;DHT22;1336;48.692;9.144;2023-04-24T08:11:04;15.20;97.20
2653;DHT22;1336;48.692;9.144;2023-04-24T08:11:54;15.20;97.20
2653;DHT22;1336;48.692;9.144;2023-04-24T08:12:47;15.30;97.20
2653;DHT22;1336;48.692;9.144;2023-04-24T08:13:37;15.40;97.20
2653;DHT22;1336;48.692;9.144;2023-04-24T08:14:29;15.50;97.20
2653;DHT22;1336;48.692;9.144;2023-04-24T08:15:20;15.50;97.20
2653;DHT22;1336;48.692;9.144;2023-04-24T08:16:12;15.50;97.20
2653;DHT22;1336;48.692;9.144;2023-04-24T08:17:03;15.50;97.20
2653;DHT22;1336;48.692;9.144;2023-04-24T08:17:54;15.50;97.20
2653;DHT22;1336;48.692;9.144;2023-04-24T08:18:45;15.30;97.20
2653;DHT22;1336;48.692;9.144;2023-04-24T08:19:37;15.30;97.20
2653;DHT22;1336;48.692;9.144;2023-04-24T08:20:28;15.20;97.20
2653;DHT22;1336;48.692;9.144;2023-04-24T08:21:21;15.10;97.20
2653;DHT22;1336;48.692;9.144;2023-04-24T08:22:12;15.10;97.20
2653;DHT22;1336;48.692;9.144;2023-04-24T08:23:03;15.00;97.20
2653;DHT22;1336;48.692;9.144;2023-04-24T08:23:55;14.90;97.20
2653;DHT22;1336;48.692;9.144;2023-04-24T08:24:46;14.80;97.20
2653;DHT22;1336;48.692;9.144;2023-04-24T08:25:37;14.60;97.20
2653;DHT22;1336;48.692;9.144;2023-04-24T08:26:28;14.60;97.20
2653;DHT22;1336;48.692;9.144;2023-04-24T08:27:20;14.50;97.20
2653;DHT22;1336;48.692;9.144;2023-04-24T08:28:10;14.40;97.20
2653;DHT22;1336;48.692;9.144;2023-04-24T08:29:02;14.40;97.20
2653;DHT22;1336;48.692;9.144;2023-04-24T08:29:53;14.40;97.20
2653;DHT22;1336;48.692;9.144;2023-04-24T08:30:45;14.40;97.20
2653;DHT22;1336;48.692;9.144;2023-04-24T08:31:37;14.50;97.20
2653;DHT22;1336;48.692;9.144;2023-04-24T08:32:29;14.60;97.20
2653;DHT22;1336;48.692;9.144;2023-04-24T08:33:20;14.70;97.20
2653;DHT22;1336;48.692;9.144;2023-04-24T08:34:11;14.80;97.20
2653;DHT22;1336;48.692;9.144;2023-04-24T08:35:02;14.90;97.20
2653;DHT22;1336;48.692;9.144;2023-04-24T08:35:54;15.00;97.20
2653;DHT22;1336;48.692;9.144;2023-04-24T08:36:46;15.00;97.20
2653;DHT22;1336;48.692;9.144;2023-04-24T08:37:38;15.10;97.20
2653;DHT22;1336;48.692;9.144;2023-04-24T08:38:29;15.20;97.20
2653;DHT22;1336;48.692;9.144;2023-04-24T08:39:21;15.20;97.20
2653;DHT22;1336;48.692;9.144;2023-04-24T08:40:13;15.20;97.20
2653;DHT22;1336;48.692;9.144;2023-04-24T08:41:05;15.20;97.20
2653;DHT22;1336;48.692;9.144;2023-04-24T08:41:57;15.30;97.20
2653;DHT22;1336;48.692;9.144;2023-04-24T08:42:55;15.40;97.20
2653;DHT22;1336;48.692;9.144;2023-04-24T08:43:46;15.50;97.20
2653;DHT22;1336;48.692;9.144;2023-04-24T08:44:39;15.70;97.20
2653;DHT22;1336;48.692;9.144;2023-04-24T08:45:30;15.90;97.20
2653;DHT22;1336;48.692;9.144;2023-04-24T08:46:22;16.10;97.20
2653;DHT22;1336;48.692;9.144;2023-04-24T08:47:15;16.30;97.20
2653;DHT22;1336;48.692;9.144;2023-04-24T08:48:07;16.50;97.20
2653;DHT22;1336;48.692;9.144;2023-04-24T08:48:58;16.60;97.20
2653;DHT22;1336;48.692;9.144;2023-04-24T08:49:51;16.70;97.20
2653;DHT22;1336;48.692;9.144;2023-04-24T08:50:42;16.70;97.20
2653;DHT22;1336;48.692;9.144;2023-04-24T08:51:36;16.70;97.20
2653;DHT22;1336;48.692;9.144;2023-04-24T08:52:29;16.60;97.20
2653;DHT22;1336;48.692;9.144;2023-04-24T08:53:21;16.50;97.20
2653;DHT22;1336;48.692;9.144;2023-04-24T08:54:13;16.40;97.20
2653;DHT22;1336;48.692;9.144;2023-04-24T08:55:05;16.20;97.20
2653;DHT22;1336;48.692;9.144;2023-04-24T08:55:57;16.00;97.20
2653;DHT22;1336;48.692;9.144;2023-04-24T08:56:49;15.70;97.20
2653;DHT22;1336;48.692;9.144;2023-04-24T08:57:40;15.60;97.20
2653;DHT22;1336;48.692;9.144;2023-04-24T08:58:35;15.40;97.20
2653;DHT22;1336;48.692;9.144;2023-04-24T08:59:26;15.40;97.20
2653;DHT22;1336;48.692;9.144;2023-04-24T09:00:20;15.30;97.20
2653;DHT22;1336;48.692;9.144;2023-04-24T09:01:11;15.40;97.20
2653;DHT22;1336;48.692;9.144;2023-04-24T09:02:03;15.40;97.20
2653;DHT22;1336;48.692;9.144;2023-04-24T09:02:56;15.50;97.20
2653;DHT22;1336;48.692;9.144;2023-04-24T09:03:49;15.60;97.20
2653;DHT22;1336;48.692;9.144;2023-04-24T09:04:40;15.60;97.20
2653;DHT22;1336;48.692;9.144;2023-04-24T09:05:32;15.70;97.20
2653;DHT22;1336;48.692;9.144;2023-04-24T09:06:24;15.80;97.20
2653;DHT22;1336;48.692;9.144;2023-04-24T09:07:16;15.90;97.20
2653;DHT22;1336;48.692;9.144;2023-04-24T09:08:09;15.90;97.20
2653;DHT22;1336;48.692;9.144;2023-04-24T09:09:02;15.90;97.20
2653;DHT22;1336;48.692;9.144;2023-04-24T09:09:54;16.00;97.20
2653;DHT22;1336;48.692;9.144;2023-04-24T09:10:46;16.10;97.20
2653;DHT22;1336;48.692;9.144;2023-04-24T09:11:37;16.20;97.20
2653;DHT22;1336;48.692;9.144;2023-04-24T09:12:29;16.30;97.20
2653;DHT22;1336;48.692;9.144;2023-04-24T09:13:20;16.60;97.20
2653;DHT22;1336;48.692;9.144;2023-04-24T09:14:11;16.70;97.20
2653;DHT22;1336;48.692;9.144;2023-04-24T09:15:05;16.70;97.20
2653;DHT22;1336;48.692;9.144;2023-04-24T09:15:57;16.70;97.20
2653;DHT22;1336;48.692;9.144;2023-04-24T09:16:50;16.80;97.20
2653;DHT22;1336;48.692;9.144;2023-04-24T09:17:41;16.80;97.20
2653;DHT22;1336;48.692;9.144;2023-04-24T09:18:33;17.00;97.20
2653;DHT22;1336;48.692;9.144;2023-04-24T09:19:25;17.00;97.20
2653;DHT22;1336;48.692;9.144;2023-04-24T09:20:17;17.00;97.20
2653;DHT22;1336;48.692;9.144;2023-04-24T09:21:09;16.90;97.20
2653;DHT22;1336;48.692;9.144;2023-04-24T09:22:04;16.90;97.20
2653;DHT22;1336;48.692;9.144;2023-04-24T09:22:57;16.90;97.20
2653;DHT22;1336;48.692;9.144;2023-04-24T09:23:59;17.00;97.20
2653;DHT22;1336;48.692;9.144;2023-04-24T09:25:01;17.00;97.20
2653;DHT22;1336;48.692;9.144;2023-04-24T09:25:55;17.00;97.20
2653;DHT22;1336;48.692;9.144;2023-04-24T09:26:46;17.00;97.20
2653;DHT22;1336;48.692;9.144;2023-04-24T09:27:41;17.00;97.20
2653;DHT22;1336;48.692;9.144;2023-04-24T09:28:35;17.00;97.20
2653;DHT22;1336;48.692;9.144;2023-04-24T09:29:27;17.10;97.20
2653;DHT22;1336;48.692;9.144;2023-04-24T09:30:21;17.20;97.20
2653;DHT22;1336;48.692;9.144;2023-04-24T09:31:14;17.20;97.20
2653;DHT22;1336;48.692;9.144;2023-04-24T09:32:18;17.20;97.20
2653;DHT22;1336;48.692;9.144;2023-04-24T09:33:13;17.20;97.20
2653;DHT22;1336;48.692;9.144;2023-04-24T09:34:05;17.30;97.20
2653;DHT22;1336;48.692;9.144;2023-04-24T09:35:07;17.30;97.20
2653;DHT22;1336;48.692;9.144;2023-04-24T09:35:59;17.40;97.20
2653;DHT22;1336;48.692;9.144;2023-04-24T09:36:51;17.50;97.20
2653;DHT22;1336;48.692;9.144;2023-04-24T09:37:44;17.50;97.20
2653;DHT22;1336;48.692;9.144;2023-04-24T09:38:37;17.50;97.20
2653;DHT22;1336;48.692;9.144;2023-04-24T09:39:30;17.40;97.20
2653;DHT22;1336;48.692;9.144;2023-04-24T09:40:22;17.30;97.20
2653;DHT22;1336;48.692;9.144;2023-04-24T09:41:14;17.30;97.20
2653;DHT22;1336;48.692;9.144;2023-04-24T09:42:05;17.30;97.20
2653;DHT22;1336;48.692;9.144;2023-04-24T09:42:57;17.30;97.20
2653;DHT22;1336;48.692;9.144;2023-04-24T09:43:49;17.30;97.20
2653;DHT22;1336;48.692;9.144;2023-04-24T09:44:41;17.40;97.20
2653;DHT22;1336;48.692;9.144;2023-04-24T09:45:36;17.40;97.20
2653;DHT22;1336;48.692;9.144;2023-04-24T09:46:31;17.40;97.20
2653;DHT22;1336;48.692;9.144;2023-04-24T09:47:22;17.50;97.20
2653;DHT22;1336;48.692;9.144;2023-04-24T09:48:13;17.50;97.20
2653;DHT22;1336;48.692;9.144;2023-04-24T09:49:08;17.50;97.20
2653;DHT22;1336;48.692;9.144;2023-04-24T09:50:09;17.60;97.20
2653;DHT22;1336;48.692;9.144;2023-04-24T09:51:00;17.60;97.20
2653;DHT22;1336;48.692;9.144;2023-04-24T09:52:02;17.70;97.20
2653;DHT22;1336;48.692;9.144;2023-04-24T09:52:58;17.90;97.20
2653;DHT22;1336;48.692;9.144;2023-04-24T09:53:52;17.90;97.20
2653;DHT22;1336;48.692;9.144;2023-04-24T09:54:52;18.10;97.20
2653;DHT22;1336;48.692;9.144;2023-04-24T09:55:45;18.30;97.20
2653;DHT22;1336;48.692;9.144;2023-04-24T09:56:42;18.40;97.20
2653;DHT22;1336;48.692;9.144;2023-04-24T09:57:34;18.60;97.20
2653;DHT22;1336;48.692;9.144;2023-04-24T09:58:26;18.80;97.20
2653;DHT22;1336;48.692;9.144;2023-04-24T09:59:18;19.00;97.20
2653;DHT22;1336;48.692;9.144;2023-04-24T10:00:11;19.10;97.20
2653;DHT22;1336;48.692;9.144;2023-04-24T10:01:02;19.00;97.20
2653;DHT22;1336;48.692;9.144;2023-04-24T10:01:55;18.90;97.20
2653;DHT22;1336;48.692;9.144;2023-04-24T10:02:50;18.80;97.20
2653;DHT22;1336;48.692;9.144;2023-04-24T10:03:42;18.70;97.20
2653;DHT22;1336;48.692;9.144;2023-04-24T10:04:35;18.50;97.20
2653;DHT22;1336;48.692;9.144;2023-04-24T10:05:29;18.30;97.20
2653;DHT22;1336;48.692;9.144;2023-04-24T10:06:21;18.10;97.20
2653;DHT22;1336;48.692;9.144;2023-04-24T10:07:14;17.80;97.20
2653;DHT22;1336;48.692;9.144;2023-04-24T10:08:07;17.70;97.20
2653;DHT22;1336;48.692;9.144;2023-04-24T10:08:58;17.60;97.20
2653;DHT22;1336;48.692;9.144;2023-04-24T10:09:52;17.60;97.20
2653;DHT22;1336;48.692;9.144;2023-04-24T10:10:44;17.70;97.20
2653;DHT22;1336;48.692;9.144;2023-04-24T10:11:36;17.90;97.20
2653;DHT22;1336;48.692;9.144;2023-04-24T10:12:27;18.10;97.20
2653;DHT22;1336;48.692;9.144;2023-04-24T10:13:19;18.30;97.20
2653;DHT22;1336;48.692;9.144;2023-04-24T10:14:13;18.40;97.20
2653;DHT22;1336;48.692;9.144;2023-04-24T10:15:04;18.50;97.20
2653;DHT22;1336;48.692;9.144;2023-04-24T10:15:59;18.60;97.20
2653;DHT22;1336;48.692;9.144;2023-04-24T10:16:54;18.80;97.20
2653;DHT22;1336;48.692;9.144;2023-04-24T10:17:46;18.90;97.20
2653;DHT22;1336;48.692;9.144;2023-04-24T10:18:42;19.00;97.20
2653;DHT22;1336;48.692;9.144;2023-04-24T10:19:35;19.00;97.20
2653;DHT22;1336;48.692;9.144;2023-04-24T10:20:28;19.10;97.20
2653;DHT22;1336;48.692;9.144;2023-04-24T10:21:21;19.00;97.20
2653;DHT22;1336;48.692;9.144;2023-04-24T10:22:13;19.10;97.20
2653;DHT22;1336;48.692;9.144;2023-04-24T10:23:06;19.20;97.20
2653;DHT22;1336;48.692;9.144;2023-04-24T10:23:59;19.30;97.20
2653;DHT22;1336;48.692;9.144;2023-04-24T10:24:52;19.40;97.20
2653;DHT22;1336;48.692;9.144;2023-04-24T10:25:44;19.50;97.20
2653;DHT22;1336;48.692;9.144;2023-04-24T10:26:35;19.60;97.20
2653;DHT22;1336;48.692;9.144;2023-04-24T10:27:28;19.80;97.20
2653;DHT22;1336;48.692;9.144;2023-04-24T10:28:20;19.90;97.20
2653;DHT22;1336;48.692;9.144;2023-04-24T10:29:13;19.90;97.20
2653;DHT22;1336;48.692;9.144;2023-04-24T10:30:07;20.00;97.20
2653;DHT22;1336;48.692;9.144;2023-04-24T10:30:59;20.10;97.20
2653;DHT22;1336;48.692;9.144;2023-04-24T10:31:51;20.20;97.20
2653;DHT22;1336;48.692;9.144;2023-04-24T10:32:42;20.20;97.20
2653;DHT22;1336;48.692;9.144;2023-04-24T10:33:34;19.90;97.20
2653;DHT22;1336;48.692;9.144;2023-04-24T10:34:26;19.70;97.20
2653;DHT22;1336;48.692;9.144;2023-04-24T10:35:18;19.50;97.20
2653;DHT22;1336;48.692;9.144;2023-04-24T10:36:13;19.30;97.20
2653;DHT22;1336;48.692;9.144;2023-04-24T10:37:05;18.90;97.20
2653;DHT22;1336;48.692;9.144;2023-04-24T10:37:59;18.70;97.20
2653;DHT22;1336;48.692;9.144;2023-04-24T10:38:53;18.50;97.20
2653;DHT22;1336;48.692;9.144;2023-04-24T10:39:47;18.40;97.20